createdAt,value
2023-04-08T00:01:20.420Z,95190.22
2023-04-08T00:03:48.420Z,95194.72
2023-04-08T00:06:16.240Z,95195.72
2023-04-08T00:08:43.874Z,95198.78
2023-04-08T00:11:11.567Z,95204.41
2023-04-08T00:13:39.184Z,95198.28
2023-04-08T00:16:07.937Z,95202.25
2023-04-08T00:18:38.151Z,95205.31
2023-04-08T00:21:05.925Z,95199.28
2023-04-08T00:23:33.518Z,95200.63
2023-04-08T00:26:01.115Z,95202.13
2023-04-08T00:28:28.715Z,95192.25
2023-04-08T00:30:56.382Z,95199.03
2023-04-08T00:33:25.673Z,95206.47
2023-04-08T00:35:54.692Z,95198.31
2023-04-08T00:38:22.319Z,95203.38
2023-04-08T00:40:50.018Z,95209.84
2023-04-08T00:43:20.760Z,95210.09
2023-04-08T00:45:48.486Z,95211.16
2023-04-08T00:48:16.263Z,95200.41
2023-04-08T00:50:44.774Z,95212.56
2023-04-08T00:53:14.472Z,95216.63
2023-04-08T00:55:42.346Z,95218.38
2023-04-08T00:58:10.126Z,95216.06
2023-04-08T01:00:43.010Z,95213.25
2023-04-08T01:03:16.076Z,95211.22
2023-04-08T01:05:54.897Z,95211.53
2023-04-08T01:08:27.915Z,95213.19
2023-04-08T01:11:02.039Z,95214.81
2023-04-08T01:13:32.364Z,95207.63
2023-04-08T01:16:00.114Z,95213.38
2023-04-08T01:18:28.031Z,95210.69
2023-04-08T01:20:56.266Z,95207.00
2023-04-08T01:23:34.139Z,95206.28
2023-04-08T01:26:03.120Z,95207.38
2023-04-08T01:28:32.252Z,95205.97
2023-04-08T01:31:03.183Z,95201.16
2023-04-08T01:33:32.504Z,95203.66
2023-04-08T01:36:01.893Z,95203.75
2023-04-08T01:38:30.843Z,95201.38
2023-04-08T01:40:58.997Z,95202.16
2023-04-08T01:43:28.785Z,95210.91
2023-04-08T01:45:58.467Z,95208.31
2023-04-08T01:48:26.944Z,95199.34
2023-04-08T01:50:56.760Z,95195.22
2023-04-08T01:53:24.646Z,95204.75
2023-04-08T01:55:57.673Z,95206.56
2023-04-08T01:58:27.381Z,95208.31
2023-04-08T02:00:58.959Z,95209.16
2023-04-08T02:03:28.867Z,95199.97
2023-04-08T02:05:56.770Z,95201.16
2023-04-08T02:08:24.391Z,95194.38
2023-04-08T02:10:52.549Z,95197.81
2023-04-08T02:13:20.338Z,95199.97
2023-04-08T02:15:54.985Z,95203.97
2023-04-08T02:18:27.478Z,95204.91
2023-04-08T02:21:03.445Z,95205.88
2023-04-08T02:23:36.310Z,95202.56
2023-04-08T02:26:09.217Z,95210.22
2023-04-08T02:28:37.782Z,95210.47
2023-04-08T02:31:09.461Z,95206.00
2023-04-08T02:33:40.351Z,95210.78
2023-04-08T02:36:09.426Z,95208.19
2023-04-08T02:38:37.076Z,95203.94
2023-04-08T02:41:04.945Z,95207.81
2023-04-08T02:43:32.776Z,95211.22
2023-04-08T02:46:03.433Z,95203.47
2023-04-08T02:48:31.676Z,95209.16
2023-04-08T02:51:00.654Z,95202.56
2023-04-08T02:53:28.273Z,95206.44
2023-04-08T02:55:56.182Z,95210.09
2023-04-08T02:58:23.830Z,95209.25
2023-04-08T03:00:51.448Z,95215.38
2023-04-08T03:03:19.214Z,95203.38
2023-04-08T03:05:46.967Z,95207.59
2023-04-08T03:08:16.023Z,95207.09
2023-04-08T03:10:43.654Z,95208.63
2023-04-08T03:13:11.287Z,95210.41
2023-04-08T03:15:38.894Z,95215.00
2023-04-08T03:18:06.696Z,95214.88
2023-04-08T03:20:34.348Z,95207.53
2023-04-08T03:23:02.181Z,95212.13
2023-04-08T03:25:31.643Z,95210.38
2023-04-08T03:27:59.738Z,95211.75
2023-04-08T03:30:27.624Z,95216.81
2023-04-08T03:32:55.630Z,95219.22
2023-04-08T03:35:23.428Z,95209.56
2023-04-08T03:37:51.282Z,95207.59
2023-04-08T03:40:19.123Z,95212.41
2023-04-08T03:42:48.186Z,95228.94
2023-04-08T03:45:15.839Z,95219.50
2023-04-08T03:47:43.532Z,95222.31
2023-04-08T03:50:11.765Z,95221.59
2023-04-08T03:52:39.388Z,95231.53
2023-04-08T03:55:07.380Z,95227.84
2023-04-08T03:57:35.031Z,95224.31
2023-04-08T04:00:04.673Z,95221.72
2023-04-08T04:02:32.423Z,95222.41
2023-04-08T04:05:00.676Z,95228.75
2023-04-08T04:07:28.371Z,95234.66
2023-04-08T04:09:57.097Z,95230.84
2023-04-08T04:12:24.860Z,95237.44
2023-04-08T04:14:52.443Z,95231.31
2023-04-08T04:17:21.374Z,95236.75
2023-04-08T04:19:48.968Z,95240.72
2023-04-08T04:22:16.685Z,95242.06
2023-04-08T04:24:48.538Z,95246.88
2023-04-08T04:27:17.655Z,95244.03
2023-04-08T04:29:45.348Z,95246.00
2023-04-08T04:32:12.966Z,95246.97
2023-04-08T04:34:42.090Z,95249.66
2023-04-08T04:37:09.679Z,95255.44
2023-04-08T04:39:37.283Z,95256.75
2023-04-08T04:42:04.927Z,95254.28
2023-04-08T04:44:32.524Z,95253.34
2023-04-08T04:47:00.246Z,95257.44
2023-04-08T04:49:27.852Z,95256.63
2023-04-08T04:51:56.929Z,95258.66
2023-04-08T04:54:24.644Z,95255.69
2023-04-08T04:56:52.281Z,95256.63
2023-04-08T04:59:19.890Z,95261.56
2023-04-08T05:01:47.564Z,95262.53
2023-04-08T05:04:15.629Z,95265.84
2023-04-08T05:06:43.236Z,95270.06
2023-04-08T05:09:12.193Z,95264.19
2023-04-08T05:11:39.823Z,95266.41
2023-04-08T05:14:07.975Z,95270.38
2023-04-08T05:16:35.779Z,95265.19
2023-04-08T05:19:03.416Z,95266.59
2023-04-08T05:21:31.263Z,95272.97
2023-04-08T05:23:58.991Z,95260.69
2023-04-08T05:26:27.993Z,95265.66
2023-04-08T05:28:55.604Z,95277.66
2023-04-08T05:31:23.221Z,95260.59
2023-04-08T05:33:50.919Z,95271.53
2023-04-08T05:36:18.530Z,95261.59
2023-04-08T05:38:46.196Z,95269.63
2023-04-08T05:41:13.787Z,95270.59
2023-04-08T05:43:42.786Z,95273.75
2023-04-08T05:46:11.592Z,95266.91
2023-04-08T05:48:39.235Z,95274.31
2023-04-08T05:51:06.897Z,95273.25
2023-04-08T05:53:34.473Z,95275.72
2023-04-08T05:56:02.119Z,95273.13
2023-04-08T05:58:29.736Z,95277.50
2023-04-08T06:00:58.694Z,95275.72
2023-04-08T06:03:26.476Z,95274.09
2023-04-08T06:05:54.366Z,95280.66
2023-04-08T06:08:22.511Z,95282.00
2023-04-08T06:10:51.323Z,95286.81
2023-04-08T06:13:20.224Z,95294.09
2023-04-08T06:15:48.860Z,95290.06
2023-04-08T06:18:17.970Z,95286.34
2023-04-08T06:20:46.121Z,95293.47
2023-04-08T06:23:14.489Z,95292.75
2023-04-08T06:25:42.098Z,95288.78
2023-04-08T06:28:09.781Z,95283.44
2023-04-08T06:30:37.387Z,95287.47
2023-04-08T06:33:05.580Z,95287.88
2023-04-08T06:35:34.630Z,95290.38
2023-04-08T06:38:02.275Z,95294.44
2023-04-08T06:40:30.057Z,95298.78
2023-04-08T06:42:57.688Z,95287.56
2023-04-08T06:45:26.098Z,95302.09
2023-04-08T06:47:56.401Z,95302.09
2023-04-08T06:50:24.063Z,95298.94
2023-04-08T06:52:53.036Z,95302.09
2023-04-08T06:55:20.692Z,95307.13
2023-04-08T06:57:48.263Z,95306.25
2023-04-08T07:00:16.094Z,95305.47
2023-04-08T07:02:43.771Z,95302.78
2023-04-08T07:05:11.718Z,95302.78
2023-04-08T07:07:39.295Z,95305.09
2023-04-08T07:10:10.927Z,95309.69
2023-04-08T07:12:38.967Z,95306.44
2023-04-08T07:15:07.855Z,95308.03
2023-04-08T07:17:35.848Z,95309.44
2023-04-08T07:20:04.000Z,95305.75
2023-04-08T07:22:31.569Z,95314.47
2023-04-08T07:24:59.164Z,95306.88
2023-04-08T07:27:28.186Z,95309.47
2023-04-08T07:29:56.475Z,95320.81
2023-04-08T07:32:24.132Z,95325.25
2023-04-08T07:34:51.757Z,95323.91
2023-04-08T07:37:19.443Z,95328.97
2023-04-08T07:39:47.153Z,95325.16
2023-04-08T07:42:14.747Z,95327.25
2023-04-08T07:44:43.692Z,95326.75
2023-04-08T07:47:11.819Z,95330.53
2023-04-08T07:49:39.574Z,95336.31
2023-04-08T07:52:07.440Z,95333.44
2023-04-08T07:54:35.332Z,95343.16
2023-04-08T07:57:03.509Z,95332.06
2023-04-08T07:59:31.197Z,95342.81
2023-04-08T08:02:00.360Z,95342.31
2023-04-08T08:04:28.368Z,95343.94
2023-04-08T08:06:56.147Z,95339.81
2023-04-08T08:09:23.783Z,95347.22
2023-04-08T08:11:51.392Z,95343.50
2023-04-08T08:14:19.081Z,95344.34
2023-04-08T08:16:47.143Z,95348.03
2023-04-08T08:19:16.130Z,95351.72
2023-04-08T08:21:43.721Z,95356.53
2023-04-08T08:24:11.330Z,95361.31
2023-04-08T08:26:39.211Z,95360.22
2023-04-08T08:29:08.429Z,95353.91
2023-04-08T08:31:36.273Z,95366.81
2023-04-08T08:34:04.097Z,95365.69
2023-04-08T08:36:34.555Z,95372.44
2023-04-08T08:39:02.480Z,95369.00
2023-04-08T08:41:34.517Z,95373.25
2023-04-08T08:44:03.750Z,95367.06
2023-04-08T08:46:31.396Z,95370.66
2023-04-08T08:48:59.111Z,95374.88
2023-04-08T08:51:28.570Z,95374.06
2023-04-08T08:53:57.526Z,95379.28
2023-04-08T08:56:25.683Z,95379.16
2023-04-08T08:58:53.323Z,95380.94
2023-04-08T09:01:34.887Z,95380.78
2023-04-08T09:04:18.349Z,95374.75
2023-04-08T09:06:47.163Z,95375.56
2023-04-08T09:09:16.226Z,95383.41
2023-04-08T09:11:45.970Z,95386.00
2023-04-08T09:14:24.071Z,95386.00
2023-04-08T09:16:52.458Z,95384.22
2023-04-08T09:19:20.713Z,95391.09
2023-04-08T09:22:06.435Z,95395.34
2023-04-08T09:24:37.020Z,95397.13
2023-04-08T09:27:05.526Z,95405.78
2023-04-08T09:29:36.436Z,95403.03
2023-04-08T09:32:06.751Z,95407.28
2023-04-08T09:34:34.911Z,95397.81
2023-04-08T09:37:02.710Z,95391.63
2023-04-08T09:39:30.791Z,95398.63
2023-04-08T09:42:01.807Z,95406.47
2023-04-08T09:44:31.249Z,95407.28
2023-04-08T09:47:07.332Z,95403.84
2023-04-08T09:49:39.502Z,95400.41
2023-04-08T09:52:09.578Z,95401.25
2023-04-08T09:54:45.468Z,95396.03
2023-04-08T09:57:18.832Z,95406.47
2023-04-08T09:59:53.705Z,95409.91
2023-04-08T10:02:30.717Z,95405.63
2023-04-08T10:05:01.243Z,95406.59
2023-04-08T10:07:28.956Z,95401.38
2023-04-08T10:09:58.212Z,95402.22
2023-04-08T10:12:27.297Z,95400.41
2023-04-08T10:15:28.246Z,95402.91
2023-04-08T10:17:57.731Z,95402.22
2023-04-08T10:20:45.021Z,95392.59
2023-04-08T10:23:14.270Z,95401.38
2023-04-08T10:25:43.085Z,95404.69
2023-04-08T10:28:27.671Z,95400.28
2023-04-08T10:30:56.635Z,95395.06
2023-04-08T10:33:26.501Z,95399.47
2023-04-08T10:35:55.967Z,95391.47
2023-04-08T10:38:23.673Z,95390.69
2023-04-08T10:40:51.396Z,95389.84
2023-04-08T10:43:19.306Z,95388.19
2023-04-08T10:45:51.295Z,95396.03
2023-04-08T10:48:22.441Z,95399.31
2023-04-08T10:50:56.560Z,95382.03
2023-04-08T10:53:28.385Z,95388.88
2023-04-08T10:55:56.101Z,95391.47
2023-04-08T10:58:24.446Z,95398.50
2023-04-08T11:00:53.429Z,95381.88
2023-04-08T11:03:21.144Z,95384.50
2023-04-08T11:05:50.853Z,95384.34
2023-04-08T11:08:20.841Z,95382.72
2023-04-08T11:10:49.531Z,95386.94
2023-04-08T11:13:17.556Z,95382.56
2023-04-08T11:15:45.469Z,95389.56
2023-04-08T11:18:14.627Z,95390.38
2023-04-08T11:20:42.289Z,95388.59
2023-04-08T11:23:14.064Z,95393.00
2023-04-08T11:25:42.614Z,95391.22
2023-04-08T11:28:10.512Z,95387.78
2023-04-08T11:30:39.514Z,95393.81
2023-04-08T11:33:07.964Z,95396.44
2023-04-08T11:35:41.523Z,95395.59
2023-04-08T11:38:09.619Z,95388.75
2023-04-08T11:40:37.305Z,95390.38
2023-04-08T11:43:10.752Z,95395.59
2023-04-08T11:45:40.252Z,95383.38
2023-04-08T11:48:11.715Z,95393.81
2023-04-08T11:50:41.732Z,95392.03
2023-04-08T11:53:18.396Z,95393.56
2023-04-08T11:55:46.429Z,95396.97
2023-04-08T11:58:14.054Z,95396.97
2023-04-08T12:00:42.660Z,95396.84
2023-04-08T12:03:11.071Z,95404.66
2023-04-08T12:05:40.641Z,95403.84
2023-04-08T12:08:08.308Z,95403.69
2023-04-08T12:10:36.087Z,95407.97
2023-04-08T12:13:03.702Z,95415.63
2023-04-08T12:15:31.458Z,95408.91
2023-04-08T12:17:59.157Z,95414.81
2023-04-08T12:20:26.786Z,95410.56
2023-04-08T12:22:55.727Z,95415.78
2023-04-08T12:25:23.394Z,95418.41
2023-04-08T12:27:50.996Z,95411.38
2023-04-08T12:30:18.610Z,95415.63
2023-04-08T12:32:47.654Z,95421.69
2023-04-08T12:35:15.390Z,95417.31
2023-04-08T12:37:43.031Z,95420.72
2023-04-08T12:40:12.429Z,95425.94
2023-04-08T12:42:40.052Z,95424.28
2023-04-08T12:45:09.068Z,95429.38
2023-04-08T12:47:36.698Z,95424.97
2023-04-08T12:50:04.964Z,95431.81
2023-04-08T12:52:33.235Z,95438.03
2023-04-08T12:55:01.091Z,95431.81
2023-04-08T12:57:31.956Z,95434.44
2023-04-08T12:59:59.608Z,95436.97
2023-04-08T13:02:27.492Z,95435.25
2023-04-08T13:04:55.312Z,95431.81
2023-04-08T13:07:23.687Z,95426.59
2023-04-08T13:09:51.346Z,95434.44
2023-04-08T13:12:18.923Z,95431.81
2023-04-08T13:14:47.903Z,95428.41
2023-04-08T13:17:15.684Z,95421.53
2023-04-08T13:19:43.270Z,95439.56
2023-04-08T13:22:10.916Z,95437.03
2023-04-08T13:24:38.622Z,95439.66
2023-04-08T13:27:06.327Z,95439.56
2023-04-08T13:29:33.957Z,95445.63
2023-04-08T13:32:02.999Z,95440.41
2023-04-08T13:34:30.989Z,95443.00
2023-04-08T13:36:58.607Z,95440.41
2023-04-08T13:39:26.414Z,95442.19
2023-04-08T13:41:54.162Z,95441.19
2023-04-08T13:44:21.805Z,95444.63
2023-04-08T13:46:49.392Z,95442.03
2023-04-08T13:49:18.427Z,95435.97
2023-04-08T13:51:46.102Z,95445.47
2023-04-08T13:54:13.725Z,95452.47
2023-04-08T13:56:41.399Z,95441.19
2023-04-08T13:59:10.277Z,95447.25
2023-04-08T14:01:38.188Z,95447.25
2023-04-08T14:04:05.891Z,95454.94
2023-04-08T14:06:36.043Z,95457.53
2023-04-08T14:09:03.937Z,95456.75
2023-04-08T14:11:31.592Z,95447.09
2023-04-08T14:13:59.255Z,95448.91
2023-04-08T14:16:27.597Z,95455.75
2023-04-08T14:18:55.226Z,95455.75
2023-04-08T14:21:22.792Z,95460.81
2023-04-08T14:23:52.655Z,95463.44
2023-04-08T14:26:20.295Z,95463.44
2023-04-08T14:28:48.858Z,95474.72
2023-04-08T14:31:16.873Z,95472.94
2023-04-08T14:33:44.515Z,95470.31
2023-04-08T14:36:12.223Z,95475.53
2023-04-08T14:38:40.156Z,95471.25
2023-04-08T14:41:09.113Z,95474.72
2023-04-08T14:43:36.777Z,95479.94
2023-04-08T14:46:04.524Z,95474.72
2023-04-08T14:48:32.192Z,95469.47
2023-04-08T14:51:00.027Z,95476.47
2023-04-08T14:53:27.682Z,95476.47
2023-04-08T14:55:55.296Z,95486.13
2023-04-08T14:58:24.363Z,95483.50
2023-04-08T15:00:52.922Z,95478.28
2023-04-08T15:03:21.083Z,95480.91
2023-04-08T15:05:48.826Z,95491.34
2023-04-08T15:08:16.522Z,95492.16
2023-04-08T15:10:44.120Z,95484.31
2023-04-08T15:13:11.704Z,95489.69
2023-04-08T15:15:40.748Z,95494.91
2023-04-08T15:18:08.497Z,95493.28
2023-04-08T15:20:36.337Z,95496.69
2023-04-08T15:23:03.940Z,95496.81
2023-04-08T15:25:31.566Z,95490.78
2023-04-08T15:27:59.155Z,95495.88
2023-04-08T15:30:27.606Z,95500.28
2023-04-08T15:32:57.567Z,95500.28
2023-04-08T15:35:25.240Z,95502.88
2023-04-08T15:37:52.824Z,95495.06
2023-04-08T15:40:20.537Z,95498.50
2023-04-08T15:42:48.130Z,95504.66
2023-04-08T15:45:15.919Z,95502.88
2023-04-08T15:47:43.927Z,95502.03
2023-04-08T15:50:14.801Z,95500.28
2023-04-08T15:52:42.550Z,95501.09
2023-04-08T15:55:10.636Z,95506.31
2023-04-08T15:57:38.545Z,95507.94
2023-04-08T16:00:10.823Z,95511.38
2023-04-08T16:02:38.775Z,95512.22
2023-04-08T16:05:07.389Z,95513.16
2023-04-08T16:07:37.368Z,95517.44
2023-04-08T16:10:05.687Z,95523.47
2023-04-08T16:12:33.358Z,95517.44
2023-04-08T16:15:01.151Z,95520.84
2023-04-08T16:17:28.746Z,95519.06
2023-04-08T16:19:57.448Z,95530.50
2023-04-08T16:22:25.173Z,95527.88
2023-04-08T16:24:54.195Z,95525.38
2023-04-08T16:27:21.838Z,95529.66
2023-04-08T16:29:49.858Z,95534.88
2023-04-08T16:32:17.477Z,95529.66
2023-04-08T16:34:45.161Z,95531.28
2023-04-08T16:37:14.819Z,95530.59
2023-04-08T16:39:42.846Z,95535.81
2023-04-08T16:42:12.124Z,95538.59
2023-04-08T16:44:39.712Z,95542.03
2023-04-08T16:47:07.340Z,95540.25
2023-04-08T16:49:34.958Z,95541.47
2023-04-08T16:52:02.661Z,95542.41
2023-04-08T16:54:30.310Z,95541.88
2023-04-08T16:56:58.108Z,95542.97
2023-04-08T16:59:29.122Z,95544.91
2023-04-08T17:01:57.243Z,95549.44
2023-04-08T17:04:24.917Z,95549.56
2023-04-08T17:06:53.126Z,95541.72
2023-04-08T17:09:21.178Z,95546.16
2023-04-08T17:11:48.880Z,95552.16
2023-04-08T17:14:16.510Z,95553.00
2023-04-08T17:16:45.515Z,95553.00
2023-04-08T17:19:14.297Z,95562.50
2023-04-08T17:21:42.683Z,95555.50
2023-04-08T17:24:10.236Z,95552.06
2023-04-08T17:26:38.015Z,95552.88
2023-04-08T17:29:05.934Z,95563.03
2023-04-08T17:31:34.030Z,95563.03
2023-04-08T17:34:03.111Z,95563.59
2023-04-08T17:36:31.315Z,95563.59
2023-04-08T17:38:58.937Z,95569.63
2023-04-08T17:41:38.846Z,95573.06
2023-04-08T17:44:07.734Z,95577.34
2023-04-08T17:46:35.416Z,95574.84
2023-04-08T17:49:04.401Z,95569.63
2023-04-08T17:51:32.925Z,95577.44
2023-04-08T17:54:00.702Z,95580.06
2023-04-08T17:56:28.933Z,95581.88
2023-04-08T17:58:56.581Z,95584.47
2023-04-08T18:01:24.248Z,95587.78
2023-04-08T18:03:52.175Z,95586.09
2023-04-08T18:06:21.337Z,95587.78
2023-04-08T18:08:48.974Z,95591.19
2023-04-08T18:11:16.643Z,95593.78
2023-04-08T18:13:44.325Z,95593.78
2023-04-08T18:16:17.029Z,95593.78
2023-04-08T18:18:44.690Z,95595.59
2023-04-08T18:21:12.270Z,95611.25
2023-04-08T18:23:41.214Z,95613.03
2023-04-08T18:26:09.295Z,95609.59
2023-04-08T18:28:36.910Z,95609.59
2023-04-08T18:31:04.651Z,95616.59
2023-04-08T18:33:32.318Z,95618.28
2023-04-08T18:36:07.103Z,95619.38
2023-04-08T18:38:36.108Z,95621.31
2023-04-08T18:41:05.784Z,95626.63
2023-04-08T18:43:33.726Z,95632.84
2023-04-08T18:46:01.618Z,95626.94
2023-04-08T18:48:29.599Z,95634.75
2023-04-08T18:50:57.531Z,95637.38
2023-04-08T18:53:25.226Z,95639.97
2023-04-08T18:55:52.897Z,95646.97
2023-04-08T18:58:21.835Z,95641.75
2023-04-08T19:00:49.451Z,95640.94
2023-04-08T19:03:17.301Z,95640.09
2023-04-08T19:05:44.977Z,95652.19
2023-04-08T19:08:12.571Z,95647.91
2023-04-08T19:10:40.371Z,95653.03
2023-04-08T19:13:08.092Z,95653.03
2023-04-08T19:15:37.034Z,95651.22
2023-04-08T19:18:05.605Z,95656.44
2023-04-08T19:20:33.669Z,95658.09
2023-04-08T19:23:01.257Z,95661.66
2023-04-08T19:25:28.877Z,95664.28
2023-04-08T19:27:56.797Z,95659.06
2023-04-08T19:30:24.461Z,95662.50
2023-04-08T19:32:53.747Z,95668.69
2023-04-08T19:35:21.395Z,95661.56
2023-04-08T19:37:48.981Z,95665.94
2023-04-08T19:40:16.648Z,95670.31
2023-04-08T19:42:45.272Z,95672.09
2023-04-08T19:45:12.885Z,95672.00
2023-04-08T19:47:42.318Z,95675.53
2023-04-08T19:50:12.840Z,95672.09
2023-04-08T19:52:40.465Z,95665.94
2023-04-08T19:55:10.107Z,95673.78
2023-04-08T19:57:37.861Z,95672.94
2023-04-08T20:00:06.350Z,95671.16
2023-04-08T20:02:34.288Z,95678.16
2023-04-08T20:05:02.324Z,95675.53
2023-04-08T20:07:31.347Z,95677.31
2023-04-08T20:09:59.000Z,95674.72
2023-04-08T20:12:26.892Z,95686.00
2023-04-08T20:14:54.472Z,95675.69
2023-04-08T20:17:22.432Z,95676.53
2023-04-08T20:19:50.042Z,95678.16
2023-04-08T20:22:17.683Z,95678.31
2023-04-08T20:24:47.759Z,95678.31
2023-04-08T20:27:16.540Z,95682.53
2023-04-08T20:29:44.168Z,95676.53
2023-04-08T20:32:12.595Z,95676.53
2023-04-08T20:34:41.533Z,95675.69
2023-04-08T20:37:09.202Z,95680.91
2023-04-08T20:39:36.810Z,95682.53
2023-04-08T20:42:06.618Z,95678.31
2023-04-08T20:44:34.245Z,95683.53
2023-04-08T20:47:02.075Z,95673.91
2023-04-08T20:49:29.786Z,95673.91
2023-04-08T20:51:58.213Z,95682.44
2023-04-08T20:54:26.427Z,95671.16
2023-04-08T20:56:54.001Z,95682.44
2023-04-08T20:59:23.018Z,95673.78
2023-04-08T21:01:51.018Z,95681.59
2023-04-08T21:04:18.673Z,95680.66
2023-04-08T21:06:46.312Z,95678.03
2023-04-08T21:09:14.887Z,95679.69
2023-04-08T21:11:42.515Z,95680.66
2023-04-08T21:14:10.221Z,95675.44
2023-04-08T21:16:39.226Z,95684.06
2023-04-08T21:19:06.955Z,95681.44
2023-04-08T21:21:34.647Z,95681.59
2023-04-08T21:24:02.258Z,95685.16
2023-04-08T21:26:29.895Z,95687.66
2023-04-08T21:28:57.548Z,95686.81
2023-04-08T21:31:25.420Z,95685.16
2023-04-08T21:33:54.424Z,95695.59
2023-04-08T21:36:22.026Z,95689.56
2023-04-08T21:38:49.820Z,95692.97
2023-04-08T21:41:18.145Z,95694.78
2023-04-08T21:43:45.802Z,95694.78
2023-04-08T21:46:13.464Z,95702.63
2023-04-08T21:48:41.065Z,95694.78
2023-04-08T21:51:09.991Z,95691.50
2023-04-08T21:53:39.075Z,95691.34
2023-04-08T21:56:08.026Z,95688.88
2023-04-08T21:58:36.051Z,95696.72
2023-04-08T22:01:04.284Z,95698.34
2023-04-08T22:03:32.044Z,95691.34
2023-04-08T22:05:59.737Z,95699.31
2023-04-08T22:08:28.738Z,95694.09
2023-04-08T22:10:56.499Z,95698.50
2023-04-08T22:13:24.130Z,95700.13
2023-04-08T22:15:51.696Z,95700.13
2023-04-08T22:18:19.456Z,95688.88
2023-04-08T22:20:47.057Z,95695.88
2023-04-08T22:23:14.656Z,95688.16
2023-04-08T22:25:43.623Z,95692.44
2023-04-08T22:28:11.295Z,95702.06
2023-04-08T22:30:38.903Z,95698.50
2023-04-08T22:33:06.551Z,95701.94
2023-04-08T22:35:34.246Z,95704.66
2023-04-08T22:38:02.005Z,95701.09
2023-04-08T22:40:29.651Z,95698.50
2023-04-08T22:42:58.584Z,95696.84
2023-04-08T22:45:26.205Z,95700.13
2023-04-08T22:47:54.495Z,95696.84
2023-04-08T22:50:23.074Z,95705.50
2023-04-08T22:52:50.805Z,95698.59
2023-04-08T22:55:18.553Z,95697.66
2023-04-08T22:57:46.340Z,95692.44
2023-04-08T23:00:15.993Z,95689.97
2023-04-08T23:02:43.756Z,95694.22
2023-04-08T23:05:11.553Z,95691.59
2023-04-08T23:07:39.179Z,95689.00
2023-04-08T23:10:08.193Z,95692.44
2023-04-08T23:12:35.885Z,95689.97
2023-04-08T23:15:03.546Z,95697.81
2023-04-08T23:17:32.553Z,95701.22
2023-04-08T23:20:00.187Z,95692.59
2023-04-08T23:22:27.792Z,95696.84
2023-04-08T23:24:55.404Z,95697.81
2023-04-08T23:27:22.984Z,95702.06
2023-04-08T23:29:50.597Z,95700.41
2023-04-08T23:32:18.286Z,95704.81
2023-04-08T23:34:47.262Z,95709.06
2023-04-08T23:37:14.870Z,95709.88
2023-04-08T23:39:42.528Z,95707.41
2023-04-08T23:42:10.142Z,95704.81
2023-04-08T23:44:37.752Z,95708.25
2023-04-08T23:47:05.397Z,95710.03
2023-04-08T23:49:33.031Z,95697.91
2023-04-08T23:52:01.950Z,95697.81
2023-04-08T23:54:32.730Z,95696.13
2023-04-08T23:57:01.043Z,95700.53
2023-04-08T23:59:28.826Z,95710.03
